Time;durP1;ratioP1;P1;durP2;ratioP2;P2;SDS_P1;SDS_P2;PMS_P1;PMS_P2;Temp;Humidity;BMP_temperature;BMP_pressure;BME280_temperature;BME280_humidity;BME280_pressure;Samples;Min_cycle;Max_cycle;Signal;HPM_P1;HPM_P2
2022/05/12 00:09:53;;;;;;;14.27;1.60;;;18.90;99.90;;;;;;6681561;89;20191;-83
2022/05/12 00:19:54;;;;;;;5.32;1.27;;;18.70;99.90;;;;;;6687541;89;20536;-82
2022/05/12 00:29:54;;;;;;;4.57;1.10;;;18.60;99.90;;;;;;6687924;89;20361;-83
2022/05/12 00:39:55;;;;;;;2.92;0.93;;;18.40;99.90;;;;;;6689413;89;20191;-81
2022/05/12 00:49:55;;;;;;;6.47;1.02;;;18.30;99.90;;;;;;6689483;89;21079;-82
2022/05/12 00:59:58;;;;;;;2.53;0.90;;;18.20;99.90;;;;;;6689450;89;20198;-82
2022/05/12 01:10:00;;;;;;;7.03;1.00;;;18.10;99.90;;;;;;6654093;89;20529;-83
2022/05/12 01:20:01;;;;;;;4.78;0.90;;;17.90;99.90;;;;;;6653270;88;20224;-82
2022/05/12 01:30:04;;;;;;;4.97;1.08;;;17.50;99.90;;;;;;6653055;89;20212;-82
2022/05/12 01:40:05;;;;;;;2.40;1.23;;;17.40;99.90;;;;;;6681611;88;20695;-83
2022/05/12 01:50:07;;;;;;;3.75;1.75;;;17.20;99.90;;;;;;6690457;88;20180;-83
2022/05/12 02:00:12;;;;;;;3.03;1.73;;;16.90;99.90;;;;;;6691542;88;20349;-82
2022/05/12 02:10:19;;;;;;;6.40;1.80;;;16.80;99.90;;;;;;6640974;89;20204;-82
2022/05/12 02:20:22;;;;;;;4.32;2.05;;;16.60;99.90;;;;;;6640490;89;20197;-82
2022/05/12 02:41:24;;;;;;;4.15;2.10;;;16.50;99.90;;;;;;6670096;88;20756;-77
2022/05/12 02:51:25;;;;;;;8.15;2.50;;;16.30;99.90;;;;;;6668043;89;20199;-78
2022/05/12 03:01:25;;;;;;;5.65;2.37;;;16.40;99.90;;;;;;6674275;89;20259;-77
2022/05/12 03:11:26;;;;;;;5.07;2.87;;;16.30;99.90;;;;;;6657254;89;20213;-79
2022/05/12 03:21:26;;;;;;;6.07;3.10;;;16.10;99.90;;;;;;6652630;89;20322;-77
2022/05/12 03:31:27;;;;;;;4.45;2.90;;;15.90;99.90;;;;;;6650896;89;20196;-77
2022/05/12 03:41:27;;;;;;;4.95;2.10;;;15.80;99.90;;;;;;6652457;89;20671;-77
2022/05/12 03:51:28;;;;;;;5.12;1.52;;;15.70;99.90;;;;;;6653159;89;20192;-76
2022/05/12 04:01:29;;;;;;;5.97;2.22;;;15.50;99.90;;;;;;6667329;89;20332;-77
2022/05/12 04:11:30;;;;;;;5.93;2.70;;;15.00;99.90;;;;;;6673505;89;20187;-78
2022/05/12 04:21:32;;;;;;;5.97;2.78;;;15.00;99.90;;;;;;6669889;89;20313;-76
2022/05/12 04:31:33;;;;;;;10.55;3.47;;;14.80;99.90;;;;;;6651827;89;20326;-77
2022/05/12 04:41:33;;;;;;;8.00;3.45;;;14.60;99.90;;;;;;6671051;89;20195;-77
2022/05/12 04:51:36;;;;;;;10.35;4.00;;;14.40;99.90;;;;;;6661929;88;20196;-78
2022/05/12 05:01:37;;;;;;;11.38;4.07;;;14.30;99.90;;;;;;6651983;89;20221;-78
2022/05/12 05:11:37;;;;;;;8.93;4.30;;;14.30;99.90;;;;;;6651568;89;20227;-78
2022/05/12 05:21:38;;;;;;;8.80;4.40;;;14.30;99.90;;;;;;6651768;89;20273;-77
2022/05/12 05:31:39;;;;;;;7.05;3.58;;;14.60;99.90;;;;;;6657233;89;20228;-78
2022/05/12 05:41:39;;;;;;;11.12;4.37;;;14.50;99.90;;;;;;6660869;89;20199;-77
2022/05/12 06:01:59;;;;;;;9.00;3.55;;;14.70;99.90;;;;;;6658822;88;20266;-78
2022/05/12 06:12:00;;;;;;;6.20;2.30;;;15.00;99.90;;;;;;6659166;88;20246;-77
2022/05/12 06:22:01;;;;;;;4.30;1.90;;;15.50;99.90;;;;;;6656086;88;20665;-77
2022/05/12 06:32:02;;;;;;;6.95;1.98;;;15.90;99.90;;;;;;6657170;89;20191;-77
2022/05/12 06:42:03;;;;;;;6.10;1.90;;;16.20;99.90;;;;;;6659016;88;20185;-77
2022/05/12 06:52:05;;;;;;;3.40;1.50;;;16.20;99.90;;;;;;6656069;89;20184;-78
2022/05/12 07:02:07;;;;;;;6.05;1.70;;;16.30;99.90;;;;;;6654666;88;20191;-79
2022/05/12 07:12:08;;;;;;;6.18;1.70;;;16.90;99.90;;;;;;6656872;89;20190;-78
2022/05/12 07:32:27;;;;;;;4.07;1.37;;;17.90;99.90;;;;;;6662120;88;20176;-78
2022/05/12 07:42:29;;;;;;;5.43;1.60;;;18.30;99.90;;;;;;6668558;89;20351;-80
2022/05/12 07:52:30;;;;;;;3.65;1.60;;;18.30;99.90;;;;;;6664714;89;20248;-77
2022/05/12 08:02:31;;;;;;;6.68;1.85;;;19.40;99.90;;;;;;6662885;88;20176;-78
2022/05/12 08:12:32;;;;;;;4.70;1.70;;;20.90;96.80;;;;;;6653662;89;20695;-78
2022/05/12 08:22:33;;;;;;;5.43;1.60;;;19.50;98.80;;;;;;6668768;89;20237;-79
2022/05/12 08:32:34;;;;;;;4.95;2.08;;;19.50;99.40;;;;;;6662423;89;20666;-78
2022/05/12 08:42:41;;;;;;;5.10;1.80;;;20.90;96.20;;;;;;6660047;89;20223;-78
2022/05/12 08:52:54;;;;;;;6.40;2.03;;;22.30;95.10;;;;;;6656789;88;20260;-78
2022/05/12 09:03:26;;;;;;;4.28;2.40;;;22.20;94.10;;;;;;6652680;89;20191;-78
2022/05/12 09:13:33;;;;;;;6.47;1.95;;;22.30;93.40;;;;;;6654571;89;20307;-77
2022/05/12 09:23:35;;;;;;;4.65;1.80;;;22.30;93.30;;;;;;6656707;89;20296;-78
2022/05/12 09:33:37;;;;;;;4.82;1.60;;;23.40;90.30;;;;;;6671946;89;20214;-79
2022/05/12 09:43:38;;;;;;;3.25;1.45;;;23.30;91.00;;;;;;6668479;88;20277;-77
2022/05/12 09:53:38;;;;;;;5.12;1.60;;;24.40;87.80;;;;;;6661492;88;20744;-77
2022/05/12 10:14:05;;;;;;;3.78;1.77;;;24.50;86.10;;;;;;6666979;89;20204;-79
2022/05/12 10:24:25;;;;;;;4.00;1.40;;;24.30;85.00;;;;;;6665007;89;20361;-79
2022/05/12 10:34:45;;;;;;;4.00;1.48;;;24.90;84.00;;;;;;6653451;89;20268;-78
2022/05/12 10:45:04;;;;;;;3.97;1.50;;;25.40;81.10;;;;;;6667958;88;20219;-77
2022/05/12 10:55:13;;;;;;;6.57;1.50;;;23.60;80.50;;;;;;6664950;88;20194;-77
2022/05/12 11:05:33;;;;;;;3.85;1.27;;;22.60;82.90;;;;;;6659412;89;20213;-78
2022/05/12 11:15:57;;;;;;;3.15;1.30;;;23.50;83.00;;;;;;6661804;89;20197;-78
2022/05/12 11:26:28;;;;;;;4.22;1.50;;;24.20;81.50;;;;;;6649357;89;20493;-78
2022/05/12 11:36:43;;;;;;;4.03;1.40;;;24.90;81.60;;;;;;6649705;89;20312;-77
2022/05/12 11:47:19;;;;;;;2.80;1.20;;;25.60;76.50;;;;;;6658326;88;20221;-77
2022/05/12 11:57:32;;;;;;;4.47;1.20;;;24.80;78.20;;;;;;6656150;89;20208;-78
2022/05/12 12:07:33;;;;;;;2.62;1.23;;;26.80;76.70;;;;;;6654975;89;20231;-77
2022/05/12 12:17:37;;;;;;;3.65;1.12;;;26.60;72.80;;;;;;6658520;89;20236;-77
2022/05/12 12:27:53;;;;;;;3.22;1.10;;;26.20;73.50;;;;;;6664946;89;20303;-77
2022/05/12 12:37:54;;;;;;;6.82;1.23;;;26.50;72.10;;;;;;6659015;89;20217;-78
2022/05/12 12:47:55;;;;;;;2.72;0.93;;;25.90;71.60;;;;;;6661476;89;20854;-78
2022/05/12 12:57:55;;;;;;;4.17;1.37;;;27.10;71.00;;;;;;6653633;89;20295;-77
2022/05/12 13:08:02;;;;;;;4.57;1.08;;;28.20;70.20;;;;;;6657766;88;20231;-77
2022/05/12 13:18:07;;;;;;;4.05;1.10;;;27.70;68.40;;;;;;6663019;89;20612;-77
2022/05/12 13:28:18;;;;;;;4.50;1.10;;;26.50;68.30;;;;;;6650344;89;20193;-77
2022/05/12 13:38:20;;;;;;;4.20;1.30;;;26.50;68.70;;;;;;6650807;88;20628;-78
2022/05/12 13:48:22;;;;;;;4.47;1.30;;;26.80;69.30;;;;;;6666557;89;20233;-78
2022/05/12 13:58:22;;;;;;;2.80;1.23;;;27.90;69.10;;;;;;6672595;88;20308;-77
2022/05/12 14:08:31;;;;;;;5.18;1.50;;;27.30;67.50;;;;;;6665121;89;20581;-77
2022/05/12 14:28:52;;;;;;;2.95;1.20;;;26.60;67.40;;;;;;6665514;89;20203;-78
2022/05/12 14:38:53;;;;;;;8.30;2.08;;;26.10;67.10;;;;;;6667997;89;20226;-78
2022/05/12 14:48:54;;;;;;;4.87;1.50;;;25.40;68.20;;;;;;6669461;89;20184;-77
2022/05/12 14:58:55;;;;;;;2.60;1.27;;;25.90;68.80;;;;;;6673528;89;20213;-78
2022/05/12 15:08:55;;;;;;;5.07;1.35;;;26.10;68.70;;;;;;6662714;89;20768;-77
2022/05/12 15:18:57;;;;;;;3.87;1.48;;;25.70;68.30;;;;;;6648110;89;20192;-77
2022/05/12 15:28:57;;;;;;;4.95;1.40;;;26.20;68.40;;;;;;6654586;89;20200;-77
2022/05/12 15:38:58;;;;;;;3.28;1.48;;;25.30;69.20;;;;;;6651893;89;20274;-76
2022/05/12 15:49:02;;;;;;;6.60;1.30;;;25.00;68.90;;;;;;6662458;89;20176;-77
2022/05/12 15:59:02;;;;;;;5.10;1.50;;;24.70;70.20;;;;;;6654049;88;20185;-77
2022/05/12 16:09:04;;;;;;;8.93;1.58;;;23.90;70.70;;;;;;6649203;88;20199;-79
2022/05/12 16:19:06;;;;;;;5.07;1.45;;;24.00;71.40;;;;;;6651442;89;20200;-78
2022/05/12 16:29:12;;;;;;;4.75;1.17;;;23.50;71.20;;;;;;6648668;89;20213;-78
2022/05/12 16:39:12;;;;;;;4.35;1.30;;;23.00;72.80;;;;;;6660229;89;20192;-77
2022/05/12 16:49:20;;;;;;;5.00;1.40;;;22.90;73.30;;;;;;6649940;88;20687;-77
2022/05/12 16:59:21;;;;;;;3.97;1.30;;;22.50;73.40;;;;;;6650914;88;20208;-77
2022/05/12 17:09:22;;;;;;;5.40;1.33;;;22.20;74.80;;;;;;6645250;89;20665;-77
2022/05/12 17:19:22;;;;;;;3.87;1.10;;;21.90;75.60;;;;;;6645250;89;20322;-77
2022/05/12 17:29:29;;;;;;;5.47;1.50;;;22.30;75.10;;;;;;6649584;89;20192;-78
2022/05/12 17:39:30;;;;;;;4.82;1.30;;;23.20;74.00;;;;;;6670457;88;20575;-78
2022/05/12 17:49:33;;;;;;;6.10;1.58;;;21.70;76.70;;;;;;6668959;89;20840;-77
2022/05/12 17:59:35;;;;;;;4.28;1.45;;;21.30;78.30;;;;;;6656194;89;20338;-77
2022/05/12 18:09:36;;;;;;;5.50;1.70;;;21.10;79.20;;;;;;6658043;88;20275;-77
2022/05/12 18:19:36;;;;;;;5.07;1.65;;;20.70;79.50;;;;;;6652843;88;20725;-77
2022/05/12 18:29:38;;;;;;;5.70;1.35;;;20.60;80.10;;;;;;6687195;88;20211;-77
2022/05/12 18:39:39;;;;;;;3.42;1.20;;;20.40;81.00;;;;;;6660348;89;20185;-78
2022/05/12 18:49:39;;;;;;;6.32;1.40;;;20.40;80.70;;;;;;6649592;89;20221;-77
2022/05/12 18:59:40;;;;;;;4.93;1.40;;;20.10;81.70;;;;;;6652714;89;20723;-78
2022/05/12 19:09:41;;;;;;;4.82;1.55;;;20.10;81.60;;;;;;6655482;88;20215;-76
2022/05/12 19:19:41;;;;;;;6.68;1.40;;;19.90;81.90;;;;;;6652059;89;20229;-77
2022/05/12 19:29:44;;;;;;;5.90;1.50;;;19.90;83.00;;;;;;6655339;88;20228;-77
2022/05/12 19:39:44;;;;;;;3.62;1.52;;;19.70;84.20;;;;;;6655544;89;20253;-77
2022/05/12 19:49:45;;;;;;;5.25;1.65;;;19.50;85.40;;;;;;6656999;89;20271;-77
2022/05/12 19:59:46;;;;;;;3.22;1.60;;;19.10;85.30;;;;;;6660714;88;20210;-77
2022/05/12 20:09:46;;;;;;;5.45;1.70;;;18.90;86.50;;;;;;6665563;89;20267;-77
2022/05/12 20:19:47;;;;;;;5.18;1.70;;;18.60;88.10;;;;;;6661645;89;20185;-77
2022/05/12 20:29:48;;;;;;;4.32;1.90;;;18.20;90.10;;;;;;6660193;88;20286;-77
2022/05/12 20:39:48;;;;;;;4.78;1.65;;;18.00;90.50;;;;;;6656462;89;20196;-77
2022/05/12 20:49:49;;;;;;;2.50;1.50;;;17.90;90.60;;;;;;6653685;89;20325;-77
2022/05/12 20:59:50;;;;;;;3.75;1.60;;;17.70;91.20;;;;;;6656477;89;20199;-77
2022/05/12 21:09:51;;;;;;;4.03;1.40;;;17.50;91.90;;;;;;6657449;89;20176;-77
2022/05/12 21:19:51;;;;;;;5.28;1.70;;;17.50;92.50;;;;;;6649475;89;20220;-77
2022/05/12 21:29:52;;;;;;;5.10;1.80;;;17.40;92.60;;;;;;6649814;88;20264;-78
2022/05/12 21:39:56;;;;;;;5.40;2.00;;;17.30;93.20;;;;;;6655305;89;20200;-77
2022/05/12 21:49:56;;;;;;;5.25;1.80;;;17.30;94.20;;;;;;6652293;88;20188;-78
2022/05/12 22:10:16;;;;;;;4.62;2.00;;;16.70;96.60;;;;;;6661039;89;20205;-77
2022/05/12 22:20:16;;;;;;;4.87;1.67;;;16.60;98.90;;;;;;6651880;89;20205;-77
2022/05/12 22:30:17;;;;;;;6.28;1.58;;;16.50;99.90;;;;;;6651736;89;20241;-78
2022/05/12 22:40:18;;;;;;;4.75;1.40;;;16.10;99.90;;;;;;6664959;89;20307;-78
2022/05/12 22:50:19;;;;;;;4.90;1.50;;;15.80;99.90;;;;;;6668550;89;20206;-77
2022/05/12 23:00:19;;;;;;;5.15;1.48;;;15.70;99.90;;;;;;6661505;89;20636;-77
2022/05/12 23:10:20;;;;;;;3.78;1.30;;;15.70;99.90;;;;;;6667377;89;20248;-77
2022/05/12 23:30:41;;;;;;;6.72;1.50;;;15.50;99.90;;;;;;6650098;89;20500;-77
2022/05/12 23:40:42;;;;;;;2.20;1.20;;;15.30;99.90;;;;;;6660542;89;20224;-77
2022/05/12 23:50:43;;;;;;;5.57;1.30;;;15.20;99.90;;;;;;6670746;89;20312;-78
